createdAt,value
2016-11-05T00:00:15.588Z,7.21
2016-11-05T00:00:37.325Z,7.20
2016-11-05T00:00:59.061Z,7.19
2016-11-05T00:01:20.785Z,7.19
2016-11-05T00:01:42.513Z,7.18
2016-11-05T00:02:04.236Z,7.19
2016-11-05T00:02:25.967Z,7.20
2016-11-05T00:02:50.275Z,7.20
2016-11-05T00:03:12.004Z,7.19
2016-11-05T00:03:33.725Z,7.16
2016-11-05T00:03:55.441Z,7.17
2016-11-05T00:04:17.152Z,7.17
2016-11-05T00:04:38.885Z,7.20
2016-11-05T00:05:00.603Z,7.20
2016-11-05T00:05:22.318Z,7.19
2016-11-05T00:05:44.046Z,7.17
2016-11-05T00:06:05.770Z,7.15
2016-11-05T00:06:27.507Z,7.13
2016-11-05T00:06:49.254Z,7.13
2016-11-05T00:07:10.966Z,7.11
2016-11-05T00:07:32.687Z,7.09
2016-11-05T00:07:54.406Z,7.08
2016-11-05T00:08:16.146Z,7.10
2016-11-05T00:08:37.863Z,7.11
2016-11-05T00:08:59.586Z,7.11
2016-11-05T00:09:21.305Z,7.12
2016-11-05T00:09:43.051Z,7.11
2016-11-05T00:10:09.556Z,7.12
2016-11-05T00:10:31.290Z,7.11
2016-11-05T00:10:53.023Z,7.12
2016-11-05T00:11:14.750Z,7.12
2016-11-05T00:11:36.494Z,7.12
2016-11-05T00:11:58.225Z,7.15
2016-11-05T00:12:19.975Z,7.15
2016-11-05T00:12:41.701Z,7.15
2016-11-05T00:13:03.431Z,7.14
2016-11-05T00:13:25.154Z,7.13
2016-11-05T00:13:46.875Z,7.14
2016-11-05T00:14:08.589Z,7.16
2016-11-05T00:14:30.312Z,7.16
2016-11-05T00:14:52.039Z,7.15
2016-11-05T00:15:13.765Z,7.16
2016-11-05T00:15:35.499Z,7.16
2016-11-05T00:15:57.224Z,7.15
2016-11-05T00:16:18.957Z,7.16
2016-11-05T00:16:40.677Z,7.14
2016-11-05T00:17:02.389Z,7.16
2016-11-05T00:17:24.123Z,7.16
2016-11-05T00:17:45.860Z,7.17
2016-11-05T00:18:07.589Z,7.18
2016-11-05T00:18:29.316Z,7.19
2016-11-05T00:18:51.035Z,7.19
2016-11-05T00:19:12.753Z,7.19
2016-11-05T00:19:39.244Z,7.20
2016-11-05T00:20:00.960Z,7.19
2016-11-05T00:20:22.719Z,7.17
2016-11-05T00:20:44.444Z,7.18
2016-11-05T00:21:06.168Z,7.15
2016-11-05T00:21:27.902Z,7.14
2016-11-05T00:21:49.621Z,7.15
2016-11-05T00:22:11.342Z,7.16
2016-11-05T00:22:33.064Z,7.14
2016-11-05T00:22:54.789Z,7.14
2016-11-05T00:23:21.281Z,7.14
2016-11-05T00:23:43.004Z,7.14
2016-11-05T00:24:04.737Z,7.14
2016-11-05T00:24:26.460Z,7.13
2016-11-05T00:24:48.173Z,7.12
2016-11-05T00:25:09.898Z,7.14
2016-11-05T00:25:31.620Z,7.15
2016-11-05T00:25:53.334Z,7.14
2016-11-05T00:26:15.072Z,7.15
2016-11-05T00:26:36.793Z,7.15
2016-11-05T00:26:58.513Z,7.15
2016-11-05T00:27:20.235Z,7.15
2016-11-05T00:27:41.970Z,7.15
2016-11-05T00:28:03.691Z,7.14
2016-11-05T00:28:25.411Z,7.15
2016-11-05T00:28:47.138Z,7.15
2016-11-05T00:29:08.877Z,7.15
2016-11-05T00:29:30.594Z,7.14
2016-11-05T00:29:52.320Z,7.15
2016-11-05T00:30:14.037Z,7.13
2016-11-05T00:30:35.767Z,7.11
2016-11-05T00:30:57.489Z,7.10
2016-11-05T00:31:19.204Z,7.09
2016-11-05T00:31:40.942Z,7.09
2016-11-05T00:32:02.657Z,7.08
2016-11-05T00:32:24.378Z,7.08
2016-11-05T00:32:46.104Z,7.09
2016-11-05T00:33:07.821Z,7.10
2016-11-05T00:33:29.550Z,7.10
2016-11-05T00:33:51.287Z,7.11
2016-11-05T00:34:13.005Z,7.10
2016-11-05T00:34:34.730Z,7.10
2016-11-05T00:34:56.469Z,7.10
2016-11-05T00:35:22.974Z,7.10
2016-11-05T00:35:44.689Z,7.09
2016-11-05T00:36:06.408Z,7.08
2016-11-05T00:36:28.131Z,7.07
2016-11-05T00:36:49.859Z,7.07
2016-11-05T00:37:11.588Z,7.09
2016-11-05T00:37:33.297Z,7.08
2016-11-05T00:37:59.798Z,7.10
2016-11-05T00:38:48.002Z,7.10
2016-11-05T00:39:09.735Z,7.12
2016-11-05T00:39:31.461Z,7.11
2016-11-05T00:39:53.193Z,7.12
2016-11-05T00:40:14.907Z,7.11
2016-11-05T00:40:36.637Z,7.12
2016-11-05T00:40:58.354Z,7.11
2016-11-05T00:41:20.062Z,7.11
2016-11-05T00:41:41.785Z,7.12
2016-11-05T00:42:03.507Z,7.13
2016-11-05T00:42:25.226Z,7.14
2016-11-05T00:42:46.951Z,7.14
2016-11-05T00:43:08.675Z,7.12
2016-11-05T00:43:30.391Z,7.11
2016-11-05T00:44:01.665Z,7.10
2016-11-05T00:44:23.397Z,7.09
2016-11-05T00:44:45.124Z,7.09
2016-11-05T00:45:06.843Z,7.10
2016-11-05T00:45:28.565Z,7.11
2016-11-05T00:45:50.284Z,7.10
2016-11-05T00:46:11.999Z,7.10
2016-11-05T00:46:33.719Z,7.10
2016-11-05T00:46:55.445Z,7.10
2016-11-05T00:47:17.172Z,7.11
2016-11-05T00:47:38.911Z,7.13
2016-11-05T00:48:00.605Z,7.13
2016-11-05T00:48:22.336Z,7.13
2016-11-05T00:48:44.052Z,7.12
2016-11-05T00:49:05.801Z,7.12
2016-11-05T00:49:27.523Z,7.11
2016-11-05T00:49:49.246Z,7.10
2016-11-05T00:50:10.970Z,7.12
2016-11-05T00:50:32.696Z,7.13
2016-11-05T00:50:54.416Z,7.12
2016-11-05T00:51:16.139Z,7.11
2016-11-05T00:51:37.857Z,7.12
2016-11-05T00:51:59.577Z,7.12
2016-11-05T00:52:21.298Z,7.12
2016-11-05T00:52:43.021Z,7.11
2016-11-05T00:53:04.739Z,7.13
2016-11-05T00:53:26.472Z,7.13
2016-11-05T00:53:48.199Z,7.13
2016-11-05T00:54:09.918Z,7.14
2016-11-05T00:54:31.647Z,7.11
2016-11-05T00:54:53.365Z,7.08
2016-11-05T00:55:19.854Z,7.02
2016-11-05T00:55:41.578Z,6.97
2016-11-05T00:56:03.298Z,6.94
2016-11-05T00:56:25.017Z,6.92
2016-11-05T00:56:46.735Z,6.94
2016-11-05T00:57:08.454Z,6.94
2016-11-05T00:57:30.179Z,6.92
2016-11-05T00:57:51.900Z,6.91
2016-11-05T00:58:13.620Z,6.90
2016-11-05T00:58:35.361Z,6.89
2016-11-05T00:58:57.081Z,6.90
2016-11-05T00:59:18.802Z,6.91
2016-11-05T00:59:40.524Z,6.92
2016-11-05T01:00:02.247Z,6.92
2016-11-05T01:00:23.977Z,6.92
2016-11-05T01:00:45.698Z,6.90
2016-11-05T01:01:07.416Z,6.90
2016-11-05T01:01:29.238Z,6.89
2016-11-05T01:01:50.958Z,6.89
2016-11-05T01:02:12.681Z,6.89
2016-11-05T01:02:34.412Z,6.90
2016-11-05T01:02:56.127Z,6.92
2016-11-05T01:03:17.844Z,6.93
2016-11-05T01:03:39.563Z,6.92
2016-11-05T01:04:01.297Z,6.93
2016-11-05T01:04:23.027Z,6.94
2016-11-05T01:04:44.757Z,6.95
2016-11-05T01:05:06.472Z,6.97
2016-11-05T01:05:28.190Z,6.94
2016-11-05T01:05:49.910Z,6.92
2016-11-05T01:06:11.628Z,6.92
2016-11-05T01:06:33.347Z,6.93
2016-11-05T01:06:55.082Z,6.91
2016-11-05T01:07:16.812Z,6.92
2016-11-05T01:07:38.553Z,6.91
2016-11-05T01:08:00.286Z,6.93
2016-11-05T01:08:22.005Z,6.91
2016-11-05T01:08:43.731Z,6.91
2016-11-05T01:09:05.460Z,6.90
2016-11-05T01:09:27.188Z,6.89
2016-11-05T01:09:48.908Z,6.89
2016-11-05T01:10:10.627Z,6.91
2016-11-05T01:10:32.342Z,6.94
2016-11-05T01:10:54.070Z,6.91
2016-11-05T01:11:15.811Z,6.90
2016-11-05T01:11:37.532Z,6.89
2016-11-05T01:11:59.255Z,6.91
2016-11-05T01:12:20.966Z,6.94
2016-11-05T01:12:42.692Z,6.91
2016-11-05T01:13:04.408Z,6.91
2016-11-05T01:13:26.130Z,6.89
2016-11-05T01:13:47.853Z,6.91
2016-11-05T01:14:09.570Z,6.94
2016-11-05T01:14:31.292Z,6.96
2016-11-05T01:14:53.016Z,6.93
2016-11-05T01:15:14.744Z,6.94
2016-11-05T01:15:36.467Z,6.94
2016-11-05T01:15:58.203Z,6.94
2016-11-05T01:16:19.913Z,6.96
2016-11-05T01:16:41.641Z,6.95
2016-11-05T01:17:03.366Z,6.91
2016-11-05T01:17:25.083Z,6.88
2016-11-05T01:17:46.810Z,6.90
2016-11-05T01:18:08.528Z,6.89
2016-11-05T01:18:30.260Z,6.86
2016-11-05T01:18:51.977Z,6.89
2016-11-05T01:19:13.698Z,6.89
2016-11-05T01:19:35.431Z,6.90
2016-11-05T01:19:58.163Z,6.86
2016-11-05T01:20:19.885Z,6.85
2016-11-05T01:20:41.609Z,6.85
2016-11-05T01:21:03.327Z,6.85
2016-11-05T01:21:25.071Z,6.84
2016-11-05T01:21:46.808Z,6.85
2016-11-05T01:22:08.532Z,6.84
2016-11-05T01:22:30.263Z,6.82
2016-11-05T01:22:51.986Z,6.81
2016-11-05T01:23:13.727Z,6.80
2016-11-05T01:23:35.439Z,6.81
2016-11-05T01:23:57.161Z,6.83
2016-11-05T01:24:18.887Z,6.81
2016-11-05T01:24:40.616Z,6.77
2016-11-05T01:25:02.362Z,6.75
2016-11-05T01:25:24.086Z,6.75
2016-11-05T01:25:45.803Z,6.77
2016-11-05T01:26:07.527Z,6.79
2016-11-05T01:26:34.028Z,6.78
2016-11-05T01:26:55.753Z,6.79
2016-11-05T01:27:17.496Z,6.79
2016-11-05T01:27:39.212Z,6.81
2016-11-05T01:28:27.422Z,6.81
2016-11-05T01:28:49.142Z,6.83
2016-11-05T01:29:10.868Z,6.83
2016-11-05T01:29:32.597Z,6.84
2016-11-05T01:29:54.329Z,6.85
2016-11-05T01:30:16.054Z,6.83
2016-11-05T01:30:37.773Z,6.85
2016-11-05T01:30:59.498Z,6.89
2016-11-05T01:31:21.214Z,6.91
2016-11-05T01:31:47.708Z,6.88
2016-11-05T01:32:09.451Z,6.85
2016-11-05T01:32:31.177Z,6.84
2016-11-05T01:32:52.900Z,6.86
2016-11-05T01:33:14.615Z,6.89
2016-11-05T01:33:36.346Z,6.90
2016-11-05T01:33:58.074Z,6.91
2016-11-05T01:34:20.804Z,6.90
2016-11-05T01:34:42.546Z,6.91
2016-11-05T01:35:09.032Z,6.91
2016-11-05T01:35:30.755Z,6.92
2016-11-05T01:35:52.487Z,6.94
2016-11-05T01:36:14.210Z,6.93
2016-11-05T01:36:35.934Z,6.92
2016-11-05T01:36:57.654Z,6.92
2016-11-05T01:37:19.386Z,6.92
2016-11-05T01:37:41.110Z,6.90
2016-11-05T01:38:02.836Z,6.89
2016-11-05T01:38:24.568Z,6.86
2016-11-05T01:38:46.301Z,6.86
2016-11-05T01:39:08.027Z,6.85
2016-11-05T01:39:29.746Z,6.84
2016-11-05T01:39:51.467Z,6.84
2016-11-05T01:40:13.218Z,6.84
2016-11-05T01:40:34.919Z,6.85
2016-11-05T01:40:56.640Z,6.84
2016-11-05T01:41:18.367Z,6.87
2016-11-05T01:41:40.091Z,6.87
2016-11-05T01:42:01.811Z,6.86
2016-11-05T01:42:23.530Z,6.86
2016-11-05T01:42:45.279Z,6.87
2016-11-05T01:43:33.513Z,6.87
2016-11-05T01:43:55.218Z,6.88
2016-11-05T01:44:16.936Z,6.87
2016-11-05T01:44:38.655Z,6.86
2016-11-05T01:45:00.377Z,6.86
2016-11-05T01:45:22.098Z,6.86
2016-11-05T01:45:43.826Z,6.84
2016-11-05T01:46:05.554Z,6.78
2016-11-05T01:46:27.293Z,6.73
2016-11-05T01:46:49.032Z,6.72
2016-11-05T01:47:10.752Z,6.72
2016-11-05T01:47:32.472Z,6.71
2016-11-05T01:47:54.260Z,6.70
2016-11-05T01:48:15.990Z,6.68
2016-11-05T01:48:37.717Z,6.67
2016-11-05T01:48:59.450Z,6.67
2016-11-05T01:49:21.169Z,6.70
2016-11-05T01:49:42.891Z,6.72
2016-11-05T01:50:04.609Z,6.74
2016-11-05T01:50:26.337Z,6.77
2016-11-05T01:50:48.065Z,6.77
2016-11-05T01:51:09.795Z,6.79
2016-11-05T01:51:31.515Z,6.78
2016-11-05T01:51:53.257Z,6.77
2016-11-05T01:52:14.986Z,6.76
2016-11-05T01:52:36.705Z,6.76
2016-11-05T01:52:58.426Z,6.80
2016-11-05T01:53:20.154Z,6.79
2016-11-05T01:53:41.874Z,6.80
2016-11-05T01:54:03.592Z,6.81
2016-11-05T01:54:25.327Z,6.79
2016-11-05T01:54:47.042Z,6.79
2016-11-05T01:55:08.764Z,6.81
2016-11-05T01:55:30.592Z,6.80
2016-11-05T01:55:52.312Z,6.80
2016-11-05T01:56:14.031Z,6.80
2016-11-05T01:56:35.749Z,6.81
2016-11-05T01:56:57.471Z,6.81
2016-11-05T01:57:19.197Z,6.82
2016-11-05T01:57:40.911Z,6.81
2016-11-05T01:58:07.396Z,6.79
2016-11-05T01:58:29.119Z,6.78
2016-11-05T01:58:50.847Z,6.78
2016-11-05T01:59:12.568Z,6.80
2016-11-05T01:59:34.295Z,6.80
2016-11-05T01:59:56.012Z,6.80
2016-11-05T02:00:17.743Z,6.78
2016-11-05T02:00:39.474Z,6.80
2016-11-05T02:01:01.208Z,6.80
2016-11-05T02:01:22.932Z,6.80
2016-11-05T02:01:44.650Z,6.78
2016-11-05T02:02:06.373Z,6.78
2016-11-05T02:02:28.100Z,6.77
2016-11-05T02:02:49.830Z,6.79
2016-11-05T02:03:11.554Z,6.81
2016-11-05T02:03:33.269Z,6.82
2016-11-05T02:03:54.999Z,6.82
2016-11-05T02:04:16.720Z,6.83
2016-11-05T02:04:38.438Z,6.80
2016-11-05T02:05:00.167Z,6.77
2016-11-05T02:05:21.887Z,6.77
2016-11-05T02:05:43.628Z,6.78
2016-11-05T02:06:05.356Z,6.76
2016-11-05T02:06:27.085Z,6.76
2016-11-05T02:06:48.800Z,6.75
2016-11-05T02:07:10.515Z,6.73
2016-11-05T02:07:32.231Z,6.72
2016-11-05T02:07:53.954Z,6.72
2016-11-05T02:08:15.754Z,6.75
2016-11-05T02:08:37.515Z,6.75
2016-11-05T02:08:59.235Z,6.73
2016-11-05T02:09:20.956Z,6.71
2016-11-05T02:09:42.690Z,6.71
2016-11-05T02:10:04.413Z,6.72
2016-11-05T02:10:26.131Z,6.75
2016-11-05T02:10:47.866Z,6.74
2016-11-05T02:11:09.599Z,6.77
2016-11-05T02:11:31.320Z,6.76
2016-11-05T02:11:57.811Z,6.76
2016-11-05T02:12:19.552Z,6.76
2016-11-05T02:12:41.282Z,6.77
2016-11-05T02:13:02.998Z,6.78
2016-11-05T02:13:24.719Z,6.80
2016-11-05T02:13:46.452Z,6.81
2016-11-05T02:14:08.186Z,6.82
2016-11-05T02:14:29.917Z,6.80
2016-11-05T02:14:51.637Z,6.79
2016-11-05T02:15:13.390Z,6.79
2016-11-05T02:15:35.119Z,6.80
2016-11-05T02:15:56.842Z,6.81
2016-11-05T02:16:18.557Z,6.83
2016-11-05T02:16:40.277Z,6.81
2016-11-05T02:17:02.016Z,6.78
2016-11-05T02:17:23.746Z,6.77
2016-11-05T02:17:45.467Z,6.78
2016-11-05T02:18:07.185Z,6.81
2016-11-05T02:18:28.910Z,6.81
2016-11-05T02:18:50.640Z,6.77
2016-11-05T02:19:12.369Z,6.76
2016-11-05T02:19:34.099Z,6.73
2016-11-05T02:19:55.826Z,6.76
2016-11-05T02:20:17.561Z,6.76
2016-11-05T02:20:39.288Z,6.78
2016-11-05T02:21:01.000Z,6.76
2016-11-05T02:21:22.716Z,6.75
2016-11-05T02:21:44.444Z,6.75
2016-11-05T02:22:06.180Z,6.74
2016-11-05T02:22:27.895Z,6.73
2016-11-05T02:22:49.626Z,6.75
2016-11-05T02:23:11.343Z,6.76
2016-11-05T02:23:33.066Z,6.78
2016-11-05T02:23:54.782Z,6.78
2016-11-05T02:24:16.501Z,6.80
2016-11-05T02:24:38.226Z,6.80
2016-11-05T02:24:59.965Z,6.80
2016-11-05T02:25:21.689Z,6.82
2016-11-05T02:25:43.439Z,6.82
2016-11-05T02:26:05.164Z,6.84
2016-11-05T02:26:26.879Z,6.84
2016-11-05T02:26:48.599Z,6.87
2016-11-05T02:27:10.325Z,6.88
2016-11-05T02:27:36.807Z,6.87
2016-11-05T02:27:58.531Z,6.87
2016-11-05T02:28:20.257Z,6.89
2016-11-05T02:28:41.985Z,6.89
2016-11-05T02:29:03.703Z,6.86
2016-11-05T02:29:25.423Z,6.85
2016-11-05T02:29:47.143Z,6.86
2016-11-05T02:30:08.861Z,6.84
2016-11-05T02:30:30.587Z,6.84
2016-11-05T02:30:52.311Z,6.83
2016-11-05T02:31:14.032Z,6.83
2016-11-05T02:31:35.770Z,6.83
2016-11-05T02:31:57.486Z,6.84
2016-11-05T02:32:19.221Z,6.87
2016-11-05T02:32:40.945Z,6.90
2016-11-05T02:33:02.670Z,6.90
2016-11-05T02:33:24.407Z,6.89
2016-11-05T02:33:46.135Z,6.86
2016-11-05T02:34:07.854Z,6.87
2016-11-05T02:34:29.578Z,6.89
2016-11-05T02:34:51.298Z,6.89
2016-11-05T02:35:13.030Z,6.90
2016-11-05T02:35:34.755Z,6.91
2016-11-05T02:35:56.469Z,6.90
2016-11-05T02:36:18.192Z,6.89
2016-11-05T02:36:39.920Z,6.93
2016-11-05T02:37:01.630Z,6.94
2016-11-05T02:37:23.349Z,6.94
2016-11-05T02:37:45.084Z,6.96
2016-11-05T02:38:06.805Z,6.95
2016-11-05T02:38:28.523Z,6.96
2016-11-05T02:38:50.259Z,6.96
2016-11-05T02:39:11.978Z,6.95
2016-11-05T02:39:33.701Z,6.96
2016-11-05T02:39:55.438Z,6.97
2016-11-05T02:40:17.161Z,6.96
2016-11-05T02:40:38.896Z,6.97
2016-11-05T02:41:00.614Z,6.99
2016-11-05T02:41:22.328Z,6.99
2016-11-05T02:41:44.061Z,7.00
2016-11-05T02:42:05.844Z,7.01
2016-11-05T02:42:27.563Z,7.03
2016-11-05T02:42:49.283Z,7.02
2016-11-05T02:43:11.017Z,7.03
2016-11-05T02:43:32.732Z,7.02
2016-11-05T02:43:54.451Z,7.03
2016-11-05T02:44:16.169Z,7.03
2016-11-05T02:44:37.893Z,7.03
2016-11-05T02:44:59.627Z,7.03
2016-11-05T02:45:21.336Z,7.05
2016-11-05T02:45:45.794Z,7.06
2016-11-05T02:46:07.535Z,7.07
2016-11-05T02:46:29.254Z,7.04
2016-11-05T02:46:50.972Z,7.07
2016-11-05T02:47:12.699Z,7.09
2016-11-05T02:47:34.415Z,7.06
2016-11-05T02:47:56.141Z,7.05
2016-11-05T02:48:17.866Z,7.06
2016-11-05T02:48:39.585Z,7.09
2016-11-05T02:49:01.307Z,7.08
2016-11-05T02:49:23.029Z,7.08
2016-11-05T02:49:44.755Z,7.09
2016-11-05T02:50:06.497Z,7.09
2016-11-05T02:50:28.221Z,7.09
2016-11-05T02:50:49.941Z,7.09
2016-11-05T02:51:11.666Z,7.10
2016-11-05T02:51:33.387Z,7.11
2016-11-05T02:51:55.112Z,7.11
2016-11-05T02:52:16.842Z,7.12
2016-11-05T02:52:38.611Z,7.12
2016-11-05T02:53:00.332Z,7.12
2016-11-05T02:53:22.052Z,7.13
2016-11-05T02:53:43.784Z,7.14
2016-11-05T02:54:05.510Z,7.12
2016-11-05T02:54:27.236Z,7.13
2016-11-05T02:54:48.957Z,7.13
2016-11-05T02:55:10.679Z,7.11
2016-11-05T02:55:35.045Z,7.12
2016-11-05T02:55:56.770Z,7.13
2016-11-05T02:56:18.498Z,7.15
2016-11-05T02:56:40.237Z,7.15
2016-11-05T02:57:01.964Z,7.15
2016-11-05T02:57:23.691Z,7.16
2016-11-05T02:57:45.418Z,7.15
2016-11-05T02:58:07.145Z,7.14
2016-11-05T02:58:28.872Z,7.14
2016-11-05T02:58:50.595Z,7.13
2016-11-05T02:59:12.309Z,7.13
2016-11-05T02:59:34.021Z,7.12
2016-11-05T02:59:55.740Z,7.13
2016-11-05T03:00:17.458Z,7.12
2016-11-05T03:00:39.176Z,7.12
2016-11-05T03:01:00.907Z,7.13
2016-11-05T03:01:22.640Z,7.13
2016-11-05T03:01:44.367Z,7.13
2016-11-05T03:02:06.095Z,7.15
2016-11-05T03:02:27.814Z,7.17
2016-11-05T03:02:49.550Z,7.18
2016-11-05T03:03:11.273Z,7.17
2016-11-05T03:03:33.000Z,7.17
2016-11-05T03:03:54.720Z,7.14
2016-11-05T03:04:16.441Z,7.14
2016-11-05T03:04:38.161Z,7.15
2016-11-05T03:04:59.882Z,7.13
2016-11-05T03:05:21.643Z,7.12
2016-11-05T03:05:43.370Z,7.10
2016-11-05T03:06:05.099Z,7.12
2016-11-05T03:06:26.812Z,7.13
2016-11-05T03:06:48.530Z,7.13
2016-11-05T03:07:10.249Z,7.13
2016-11-05T03:07:31.991Z,7.12
2016-11-05T03:07:53.732Z,7.11
2016-11-05T03:08:15.461Z,7.13
2016-11-05T03:08:37.166Z,7.13
2016-11-05T03:08:58.894Z,7.12
2016-11-05T03:09:20.628Z,7.12
2016-11-05T03:09:42.352Z,7.12
2016-11-05T03:10:04.078Z,7.11
2016-11-05T03:10:25.792Z,7.13
2016-11-05T03:10:47.521Z,7.13
2016-11-05T03:11:09.242Z,7.14
2016-11-05T03:11:30.976Z,7.15
2016-11-05T03:11:52.698Z,7.15
2016-11-05T03:12:14.434Z,7.15
2016-11-05T03:12:36.155Z,7.15
2016-11-05T03:12:57.911Z,7.14
2016-11-05T03:13:19.630Z,7.12
2016-11-05T03:13:41.351Z,7.14
2016-11-05T03:14:03.074Z,7.14
2016-11-05T03:14:24.787Z,7.13
2016-11-05T03:14:46.504Z,7.12
2016-11-05T03:15:08.229Z,7.12
2016-11-05T03:15:29.946Z,7.12
2016-11-05T03:15:51.670Z,7.13
2016-11-05T03:16:13.396Z,7.12
2016-11-05T03:16:38.011Z,7.13
2016-11-05T03:16:59.668Z,7.13
2016-11-05T03:17:21.394Z,7.15
2016-11-05T03:17:43.138Z,7.15
2016-11-05T03:18:04.853Z,7.15
2016-11-05T03:18:26.585Z,7.15
2016-11-05T03:18:48.306Z,7.17
2016-11-05T03:19:10.028Z,7.16
2016-11-05T03:19:31.763Z,7.17
2016-11-05T03:19:53.497Z,7.18
2016-11-05T03:20:15.216Z,7.17
2016-11-05T03:20:36.936Z,7.15
2016-11-05T03:20:58.645Z,7.17
2016-11-05T03:21:20.374Z,7.18
2016-11-05T03:21:42.107Z,7.17
2016-11-05T03:22:03.835Z,7.21
2016-11-05T03:22:25.590Z,7.21
2016-11-05T03:22:47.319Z,7.21
2016-11-05T03:23:09.046Z,7.19
2016-11-05T03:23:30.765Z,7.19
2016-11-05T03:23:52.484Z,7.20
2016-11-05T03:24:14.213Z,7.22
2016-11-05T03:24:35.930Z,7.23
2016-11-05T03:24:57.655Z,7.22
2016-11-05T03:25:19.369Z,7.23
2016-11-05T03:25:41.085Z,7.24
2016-11-05T03:26:02.807Z,7.27
2016-11-05T03:26:24.534Z,7.27
2016-11-05T03:26:46.312Z,7.28
2016-11-05T03:27:08.034Z,7.28
2016-11-05T03:27:29.761Z,7.26
2016-11-05T03:27:51.474Z,7.26
2016-11-05T03:28:13.196Z,7.30
2016-11-05T03:28:34.913Z,7.31
2016-11-05T03:28:56.631Z,7.32
2016-11-05T03:29:18.349Z,7.31
2016-11-05T03:29:40.066Z,7.31
2016-11-05T03:30:01.788Z,7.31
2016-11-05T03:30:23.507Z,7.30
2016-11-05T03:30:45.218Z,7.29
2016-11-05T03:31:06.946Z,7.30
2016-11-05T03:31:28.668Z,7.30
2016-11-05T03:31:50.390Z,7.33
2016-11-05T03:32:12.107Z,7.33
2016-11-05T03:32:33.826Z,7.35
2016-11-05T03:32:55.543Z,7.33
2016-11-05T03:33:17.281Z,7.34
2016-11-05T03:33:39.000Z,7.36
2016-11-05T03:34:00.733Z,7.35
2016-11-05T03:34:22.486Z,7.37
2016-11-05T03:34:44.210Z,7.36
2016-11-05T03:35:05.922Z,7.38
2016-11-05T03:35:27.642Z,7.40
2016-11-05T03:35:49.359Z,7.41
2016-11-05T03:36:11.082Z,7.42
2016-11-05T03:36:32.809Z,7.43
2016-11-05T03:36:54.534Z,7.43
2016-11-05T03:37:16.260Z,7.44
2016-11-05T03:37:37.988Z,7.45
2016-11-05T03:37:59.714Z,7.44
2016-11-05T03:38:21.435Z,7.44
2016-11-05T03:38:43.154Z,7.45
2016-11-05T03:39:04.877Z,7.46
2016-11-05T03:39:26.602Z,7.46
2016-11-05T03:39:48.322Z,7.45
2016-11-05T03:40:10.050Z,7.46
2016-11-05T03:40:31.769Z,7.45
2016-11-05T03:40:53.492Z,7.46
2016-11-05T03:41:15.235Z,7.47
2016-11-05T03:41:36.954Z,7.45
2016-11-05T03:41:58.675Z,7.46
2016-11-05T03:42:20.427Z,7.47
2016-11-05T03:42:42.153Z,7.46
2016-11-05T03:43:03.868Z,7.47
2016-11-05T03:43:25.592Z,7.48
2016-11-05T03:43:47.325Z,7.49
2016-11-05T03:44:09.038Z,7.50
2016-11-05T03:44:30.752Z,7.51
2016-11-05T03:44:52.486Z,7.50
2016-11-05T03:45:14.209Z,7.51
2016-11-05T03:45:35.932Z,7.51
2016-11-05T03:45:57.655Z,7.51
2016-11-05T03:46:19.372Z,7.52
2016-11-05T03:46:41.093Z,7.55
2016-11-05T03:47:02.813Z,7.56
2016-11-05T03:47:24.538Z,7.58
2016-11-05T03:47:46.251Z,7.59
2016-11-05T03:48:07.975Z,7.60
2016-11-05T03:48:29.702Z,7.61
2016-11-05T03:48:51.429Z,7.59
2016-11-05T03:49:13.169Z,7.61
2016-11-05T03:49:34.883Z,7.62
2016-11-05T03:49:56.597Z,7.60
2016-11-05T03:50:18.323Z,7.59
2016-11-05T03:50:40.043Z,7.61
2016-11-05T03:51:01.764Z,7.63
2016-11-05T03:51:23.483Z,7.62
2016-11-05T03:51:45.218Z,7.63
2016-11-05T03:52:06.947Z,7.63
2016-11-05T03:52:28.659Z,7.62
2016-11-05T03:52:50.380Z,7.63
2016-11-05T03:53:12.109Z,7.66
2016-11-05T03:53:33.838Z,7.65
2016-11-05T03:53:55.561Z,7.62
2016-11-05T03:54:17.293Z,7.63
2016-11-05T03:54:39.010Z,7.64
2016-11-05T03:55:00.735Z,7.65
2016-11-05T03:55:22.448Z,7.66
2016-11-05T03:55:44.163Z,7.65
2016-11-05T03:56:05.882Z,7.66
2016-11-05T03:56:27.609Z,7.67
2016-11-05T03:56:49.364Z,7.66
2016-11-05T03:57:11.092Z,7.63
2016-11-05T03:57:32.811Z,7.67
2016-11-05T03:57:54.521Z,7.65
2016-11-05T03:58:16.253Z,7.67
2016-11-05T03:58:37.984Z,7.68
2016-11-05T03:58:59.700Z,7.69
2016-11-05T03:59:21.418Z,7.69
2016-11-05T03:59:43.137Z,7.69
2016-11-05T04:00:04.857Z,7.69
2016-11-05T04:00:26.580Z,7.71
2016-11-05T04:00:48.296Z,7.71
2016-11-05T04:01:10.019Z,7.71
2016-11-05T04:01:31.743Z,7.72
2016-11-05T04:01:53.478Z,7.74
2016-11-05T04:02:15.223Z,7.75
2016-11-05T04:02:36.942Z,7.74
2016-11-05T04:02:58.722Z,7.75
2016-11-05T04:03:20.452Z,7.75
2016-11-05T04:03:42.171Z,7.74
2016-11-05T04:04:03.900Z,7.76
2016-11-05T04:04:25.625Z,7.77
2016-11-05T04:04:47.345Z,7.77
2016-11-05T04:05:09.063Z,7.76
2016-11-05T04:05:30.780Z,7.76
2016-11-05T04:05:52.512Z,7.75
2016-11-05T04:06:14.229Z,7.75
2016-11-05T04:06:35.958Z,7.78
2016-11-05T04:06:57.688Z,7.79
2016-11-05T04:07:19.412Z,7.78
2016-11-05T04:07:41.150Z,7.75
2016-11-05T04:08:02.879Z,7.77
2016-11-05T04:08:24.606Z,7.79
2016-11-05T04:08:46.337Z,7.80
2016-11-05T04:09:08.062Z,7.80
2016-11-05T04:09:29.783Z,7.80
2016-11-05T04:09:51.501Z,7.79
2016-11-05T04:10:13.248Z,7.80
2016-11-05T04:10:34.962Z,7.79
2016-11-05T04:10:56.688Z,7.80
2016-11-05T04:11:18.426Z,7.80
2016-11-05T04:11:40.145Z,7.78
2016-11-05T04:12:01.862Z,7.79
2016-11-05T04:12:23.598Z,7.80
2016-11-05T04:12:45.325Z,7.81
2016-11-05T04:13:07.051Z,7.84
2016-11-05T04:13:28.771Z,7.83
2016-11-05T04:13:50.490Z,7.84
2016-11-05T04:14:12.210Z,7.86
2016-11-05T04:14:33.942Z,7.88
2016-11-05T04:14:55.655Z,7.86
2016-11-05T04:15:17.385Z,7.84
2016-11-05T04:15:39.123Z,7.86
2016-11-05T04:16:00.853Z,7.87
2016-11-05T04:16:22.583Z,7.85
2016-11-05T04:16:44.306Z,7.84
2016-11-05T04:17:06.026Z,7.84
2016-11-05T04:17:27.745Z,7.85
2016-11-05T04:17:49.470Z,7.82
2016-11-05T04:18:11.198Z,7.83
2016-11-05T04:18:32.912Z,7.84
2016-11-05T04:18:54.633Z,7.86
2016-11-05T04:19:16.358Z,7.89
2016-11-05T04:19:40.292Z,7.91
2016-11-05T04:20:02.013Z,7.92
2016-11-05T04:20:23.729Z,7.94
2016-11-05T04:20:45.468Z,7.97
2016-11-05T04:21:07.176Z,7.98
2016-11-05T04:21:28.894Z,7.95
2016-11-05T04:21:50.619Z,7.92
2016-11-05T04:22:12.344Z,7.92
2016-11-05T04:22:34.060Z,7.91
2016-11-05T04:22:55.785Z,7.92
2016-11-05T04:23:17.524Z,7.95
2016-11-05T04:23:39.258Z,7.93
2016-11-05T04:24:00.984Z,7.96
2016-11-05T04:24:22.709Z,7.94
2016-11-05T04:24:44.441Z,7.91
2016-11-05T04:25:06.159Z,7.92
2016-11-05T04:25:27.879Z,7.93
2016-11-05T04:25:49.599Z,7.92
2016-11-05T04:26:11.318Z,7.93
2016-11-05T04:26:33.118Z,7.94
2016-11-05T04:26:54.840Z,7.93
2016-11-05T04:27:16.567Z,7.94
2016-11-05T04:27:38.293Z,7.94
2016-11-05T04:28:00.011Z,7.95
2016-11-05T04:28:21.730Z,7.97
2016-11-05T04:29:09.955Z,7.96
2016-11-05T04:29:31.673Z,7.95
2016-11-05T04:29:53.393Z,7.97
2016-11-05T04:30:15.114Z,7.96
2016-11-05T04:30:36.834Z,7.97
2016-11-05T04:30:58.570Z,7.98
2016-11-05T04:31:20.296Z,7.99
2016-11-05T04:31:42.038Z,7.97
2016-11-05T04:32:03.847Z,7.96
2016-11-05T04:32:25.567Z,7.94
2016-11-05T04:32:47.284Z,7.95
2016-11-05T04:33:09.003Z,7.95
2016-11-05T04:33:30.733Z,7.94
2016-11-05T04:33:52.455Z,7.94
2016-11-05T04:34:14.180Z,7.94
2016-11-05T04:34:35.902Z,7.95
2016-11-05T04:34:57.623Z,7.94
2016-11-05T04:35:19.432Z,7.97
2016-11-05T04:35:41.151Z,7.96
2016-11-05T04:36:02.870Z,7.97
2016-11-05T04:36:24.591Z,7.96
2016-11-05T04:36:46.310Z,7.95
2016-11-05T04:37:08.030Z,7.96
2016-11-05T04:37:29.757Z,7.96
2016-11-05T04:37:51.475Z,7.95
2016-11-05T04:38:13.207Z,7.98
2016-11-05T04:38:34.926Z,7.94
2016-11-05T04:38:56.643Z,7.97
2016-11-05T04:39:18.478Z,7.97
2016-11-05T04:39:40.199Z,7.98
2016-11-05T04:40:01.935Z,7.99
2016-11-05T04:40:23.654Z,7.97
2016-11-05T04:40:45.384Z,7.95
2016-11-05T04:41:07.105Z,7.97
2016-11-05T04:41:28.825Z,7.99
2016-11-05T04:41:50.545Z,7.97
2016-11-05T04:42:17.041Z,7.94
2016-11-05T04:42:38.761Z,7.94
2016-11-05T04:43:00.481Z,7.96
2016-11-05T04:43:22.208Z,7.97
2016-11-05T04:43:43.925Z,7.97
2016-11-05T04:44:05.646Z,7.96
2016-11-05T04:44:27.380Z,7.97
2016-11-05T04:44:49.102Z,7.94
2016-11-05T04:45:10.829Z,7.95
2016-11-05T04:45:32.550Z,7.99
2016-11-05T04:45:54.266Z,8.04
2016-11-05T04:46:15.984Z,8.03
2016-11-05T04:46:37.711Z,8.05
2016-11-05T04:46:59.429Z,8.02
2016-11-05T04:47:21.143Z,8.05
2016-11-05T04:47:42.860Z,8.05
2016-11-05T04:48:04.608Z,8.08
2016-11-05T04:48:26.345Z,8.08
2016-11-05T04:48:48.067Z,8.04
2016-11-05T04:49:09.788Z,8.00
2016-11-05T04:49:31.508Z,8.03
2016-11-05T04:49:53.239Z,8.07
2016-11-05T04:50:14.960Z,8.09
2016-11-05T04:50:36.685Z,8.08
2016-11-05T04:50:58.406Z,8.08
2016-11-05T04:51:20.132Z,8.04
2016-11-05T04:51:41.852Z,8.00
2016-11-05T04:52:03.584Z,8.03
2016-11-05T04:52:25.327Z,8.01